< < Back
Terminal Aerodrome Forecast


Current Version              Previous Versions:   1  2  3  4  5  6  7  8  9  

Terminal Aerodrome Forecast

486
FTUS42 KCHS 290500
TAFCHS
TAF
KCHS 290530Z 2906/3006 31007KT P6SM FEW080
     FM291000 33005KT P6SM SKC
     FM291800 35005KT P6SM FEW050=



Latest METAR

693
SAUS80 KWBC 291600 RRA
MTRCHS
METAR KCHS 291556Z 02009KT 10SM FEW080 30/17 A2993 RMK AO2 SLP134
T03000172


USA.gov is the U.S. government's official web portal to all federal, state and local government web resources and services.